Terminal Aerodrome Forecast
Issued by NWS Portland, OR

Home | Current Version | Previous Version | Text Only | Print | Product List | Glossary On
Versions: 1 2 3 4 5 6 7 8 9 10 11 12 13 14 15 16 17 18 19 20 21 22 23 24 25 26 27 28 29 30 31 32 33 34 35 36 37 38 39 40 41 42
000
FTUS46 KPQR 271730
TAFAST
TAF
KAST 271730Z 2718/2818 21007KT P6SM OVC010
     FM272100 21012KT P6SM OVC015
     FM280000 21013G21KT P6SM -RA SCT015 OVC025
     FM280500 24011KT P6SM -SHRA SCT020 BKN030=

USA.gov is the U.S. government's official web portal to all federal, state and local government web resources and services.